KCC weather

Coffman Cove Seaplane Base
Coffman Cove, Alaska, United States

Public forecast

Using degrees Fahrenheit for public forecast. Weather courtesy of forecast.io.

METAR (pilot weather report)

Closest report is Klawock Airport, 26.7 nm (49.4 km) SSW. Retrieved 2019/09/19 11:08 UTC (43 minutes ago):

PAKW 191108Z AUTO 17009KT 2 1/2SM RA BR OVC018 13/12 A2987 RMK P0002 T01330117 TSNO $ VIA AUTODIAL

TAF (pilot weather forecast)

Closest forecast is Klawock Airport, 26.7 nm (49.4 km) SSW. Retrieved 2019/09/19 06:24 UTC (5 hours ago):

TAF PAKW 190520Z 1906/2006 19007KT 4SM -RA BR BKN015 OVC025 FM191600 21009KT 6SM -RA BR BKN025 OVC040 FM192100 22005KT P6SM VCSH SCT025 OVC040 AMD LTD TO CLD VIS AND WIND